MAS113 OERK-OMDB
Flight info
| Callsign | MAS113 |
|---|---|
| Flight time | 1h 26m |
| Altitude | 39000 |
| Route | RESAL T533 RAPMA DCT KUVSO DCT RIBOT M550 GOLGU M318 RURAL Q317 LORID |
| Aircraft | A339/H-SADE1E2E3GHIJ3J5M1P2RWXY/LB2D1 |
Departure
| Time | 2026-04-23 15:22 |
|---|---|
| Airport | King Khalid International Airport (OERK) |
Arrival
| Time | 2026-04-23 16:49 |
|---|---|
| Airport | Dubai International Airport (OMDB) |
| Time | Latitude | Longitude | Altitude | Speed | Heading |
|---|---|---|---|---|---|
| 2026-04-23 14:48 | 24.94316 | 46.71520 | 2059 ft | 0 kts | 60° |
| 2026-04-23 15:11 | 24.94315 | 46.71516 | 2059 ft | 2 kts | 51° |
| 2026-04-23 15:11 | 24.94304 | 46.71505 | 2059 ft | 2 kts | 66° |
| 2026-04-23 15:12 | 24.94302 | 46.71490 | 2059 ft | 2 kts | 88° |
| 2026-04-23 15:12 | 24.94301 | 46.71474 | 2059 ft | 2 kts | 95° |
| 2026-04-23 15:12 | 24.94304 | 46.71458 | 2059 ft | 2 kts | 107° |
| 2026-04-23 15:12 | 24.94309 | 46.71442 | 2059 ft | 2 kts | 118° |
| 2026-04-23 15:13 | 24.94317 | 46.71429 | 2059 ft | 2 kts | 129° |
| 2026-04-23 15:13 | 24.94327 | 46.71417 | 2059 ft | 2 kts | 140° |
| 2026-04-23 15:13 | 24.94339 | 46.71407 | 2059 ft | 2 kts | 150° |
| 2026-04-23 15:13 | 24.94352 | 46.71399 | 2059 ft | 2 kts | 150° |
| 2026-04-23 15:14 | 24.94365 | 46.71390 | 2059 ft | 2 kts | 148° |
| 2026-04-23 15:14 | 24.94378 | 46.71382 | 2059 ft | 2 kts | 149° |
| 2026-04-23 15:14 | 24.94391 | 46.71373 | 2059 ft | 2 kts | 149° |
| 2026-04-23 15:14 | 24.94400 | 46.71367 | 2059 ft | 0 kts | 149° |
| 2026-04-23 15:17 | 24.94399 | 46.71368 | 2059 ft | 1 kts | 149° |
| 2026-04-23 15:17 | 24.94350 | 46.71400 | 2059 ft | 13 kts | 149° |
| 2026-04-23 15:18 | 24.94247 | 46.71466 | 2059 ft | 17 kts | 150° |
| 2026-04-23 15:18 | 24.94208 | 46.71507 | 2059 ft | 7 kts | 103° |
| 2026-04-23 15:18 | 24.94225 | 46.71565 | 2059 ft | 9 kts | 62° |
| 2026-04-23 15:18 | 24.94259 | 46.71632 | 2059 ft | 10 kts | 60° |
| 2026-04-23 15:19 | 24.94297 | 46.71703 | 2059 ft | 11 kts | 59° |
| 2026-04-23 15:19 | 24.94339 | 46.71778 | 2059 ft | 11 kts | 58° |
| 2026-04-23 15:19 | 24.94352 | 46.71802 | 2059 ft | 0 kts | 58° |
| 2026-04-23 15:19 | 24.94358 | 46.71814 | 2059 ft | 3 kts | 58° |
| 2026-04-23 15:20 | 24.94393 | 46.71878 | 2059 ft | 13 kts | 61° |
| 2026-04-23 15:20 | 24.94440 | 46.71972 | 2059 ft | 14 kts | 61° |
| 2026-04-23 15:20 | 24.94493 | 46.72077 | 2059 ft | 16 kts | 61° |
| 2026-04-23 15:20 | 24.94534 | 46.72143 | 2059 ft | 10 kts | 36° |
| 2026-04-23 15:21 | 24.94601 | 46.72148 | 2059 ft | 10 kts | 340° |
| 2026-04-23 15:21 | 24.94634 | 46.72131 | 2059 ft | 0 kts | 332° |
| 2026-04-23 15:21 | 24.94728 | 46.72074 | 2059 ft | 48 kts | 330° |
| 2026-04-23 15:21 | 24.95241 | 46.71755 | 2059 ft | 117 kts | 328° |
| 2026-04-23 15:22 | 24.96124 | 46.71187 | 2071 ft | 172 kts | 334° |
| 2026-04-23 15:22 | 24.97247 | 46.70506 | 2468 ft | 191 kts | 334° |
| 2026-04-23 15:22 | 24.98421 | 46.69819 | 3207 ft | 195 kts | 341° |
| 2026-04-23 15:22 | 24.99683 | 46.69251 | 3951 ft | 201 kts | 346° |
| 2026-04-23 15:23 | 25.01073 | 46.68727 | 4531 ft | 216 kts | 346° |
| 2026-04-23 15:23 | 25.02532 | 46.68186 | 4929 ft | 232 kts | 346° |
| 2026-04-23 15:23 | 25.04120 | 46.67591 | 5300 ft | 250 kts | 346° |
| 2026-04-23 15:23 | 25.05832 | 46.66940 | 5663 ft | 268 kts | 345° |
| 2026-04-23 15:24 | 25.07664 | 46.66240 | 6053 ft | 284 kts | 345° |
| 2026-04-23 15:24 | 25.09607 | 46.65820 | 6641 ft | 285 kts | 5° |
| 2026-04-23 15:24 | 25.11551 | 46.66204 | 7295 ft | 284 kts | 21° |
| 2026-04-23 15:24 | 25.13448 | 46.66919 | 7873 ft | 291 kts | 22° |
| 2026-04-23 15:25 | 25.15384 | 46.67684 | 8436 ft | 298 kts | 22° |
| 2026-04-23 15:25 | 25.17292 | 46.68621 | 8921 ft | 303 kts | 40° |
| 2026-04-23 15:25 | 25.18691 | 46.70356 | 9459 ft | 299 kts | 68° |
| 2026-04-23 15:25 | 25.19212 | 46.72528 | 10019 ft | 293 kts | 95° |
| 2026-04-23 15:26 | 25.18776 | 46.74706 | 10478 ft | 292 kts | 122° |
| 2026-04-23 15:26 | 25.17552 | 46.76503 | 10771 ft | 301 kts | 136° |
| 2026-04-23 15:26 | 25.16120 | 46.78281 | 11048 ft | 318 kts | 136° |
| 2026-04-23 15:26 | 25.14622 | 46.80174 | 11333 ft | 335 kts | 135° |
| 2026-04-23 15:27 | 25.13060 | 46.82168 | 11595 ft | 351 kts | 135° |
| 2026-04-23 15:27 | 25.11414 | 46.84278 | 11874 ft | 367 kts | 135° |
| 2026-04-23 15:27 | 25.09725 | 46.86449 | 12219 ft | 379 kts | 135° |
| 2026-04-23 15:27 | 25.08002 | 46.88670 | 12768 ft | 383 kts | 135° |
| 2026-04-23 15:28 | 25.06262 | 46.90916 | 13354 ft | 388 kts | 135° |
| 2026-04-23 15:28 | 25.04479 | 46.93216 | 13928 ft | 393 kts | 135° |
| 2026-04-23 15:28 | 25.02707 | 46.95495 | 14417 ft | 399 kts | 135° |
| 2026-04-23 15:28 | 25.00865 | 46.97865 | 14937 ft | 405 kts | 136° |
| 2026-04-23 15:29 | 24.99040 | 47.00211 | 15448 ft | 410 kts | 135° |
| 2026-04-23 15:29 | 24.97160 | 47.02630 | 16005 ft | 414 kts | 135° |
| 2026-04-23 15:29 | 24.95274 | 47.05053 | 16490 ft | 420 kts | 135° |
| 2026-04-23 15:29 | 24.93343 | 47.07530 | 17016 ft | 425 kts | 135° |
| 2026-04-23 15:30 | 24.91393 | 47.10029 | 17545 ft | 430 kts | 135° |
| 2026-04-23 15:30 | 24.89446 | 47.12531 | 18052 ft | 435 kts | 135° |
| 2026-04-23 15:30 | 24.87458 | 47.15081 | 18578 ft | 440 kts | 135° |
| 2026-04-23 15:30 | 24.85447 | 47.17659 | 19104 ft | 444 kts | 135° |
| 2026-04-23 15:31 | 24.83426 | 47.20243 | 19629 ft | 448 kts | 135° |
| 2026-04-23 15:31 | 24.81373 | 47.22874 | 20122 ft | 453 kts | 135° |
| 2026-04-23 15:31 | 24.79321 | 47.25501 | 20616 ft | 456 kts | 135° |
| 2026-04-23 15:31 | 24.77220 | 47.28184 | 21066 ft | 461 kts | 135° |
| 2026-04-23 15:32 | 24.75131 | 47.30855 | 21514 ft | 465 kts | 135° |
| 2026-04-23 15:32 | 24.73007 | 47.33570 | 21954 ft | 469 kts | 134° |
| 2026-04-23 15:32 | 24.70861 | 47.36311 | 22374 ft | 473 kts | 135° |
| 2026-04-23 15:32 | 24.68684 | 47.39092 | 22789 ft | 477 kts | 135° |
| 2026-04-23 15:33 | 24.66536 | 47.41832 | 23213 ft | 481 kts | 135° |
| 2026-04-23 15:33 | 24.64314 | 47.44662 | 23601 ft | 486 kts | 135° |
| 2026-04-23 15:33 | 24.62096 | 47.47488 | 24021 ft | 489 kts | 135° |
| 2026-04-23 15:33 | 24.59871 | 47.50322 | 24427 ft | 493 kts | 135° |
| 2026-04-23 15:34 | 24.57612 | 47.53197 | 24785 ft | 497 kts | 135° |
| 2026-04-23 15:34 | 24.55346 | 47.56078 | 25192 ft | 500 kts | 135° |
| 2026-04-23 15:34 | 24.53053 | 47.58991 | 25576 ft | 503 kts | 135° |
| 2026-04-23 15:34 | 24.50766 | 47.61894 | 25915 ft | 508 kts | 135° |
| 2026-04-23 15:35 | 24.48431 | 47.64859 | 26300 ft | 511 kts | 134° |
| 2026-04-23 15:35 | 24.46096 | 47.67820 | 26618 ft | 514 kts | 135° |
| 2026-04-23 15:35 | 24.43723 | 47.70829 | 26932 ft | 518 kts | 135° |
| 2026-04-23 15:35 | 24.41352 | 47.73831 | 27250 ft | 521 kts | 135° |
| 2026-04-23 15:36 | 24.38970 | 47.76847 | 27562 ft | 525 kts | 135° |
| 2026-04-23 15:36 | 24.36568 | 47.79887 | 27864 ft | 528 kts | 135° |
| 2026-04-23 15:36 | 24.34151 | 47.82943 | 28254 ft | 529 kts | 135° |
| 2026-04-23 15:36 | 24.31751 | 47.85980 | 28789 ft | 527 kts | 135° |
| 2026-04-23 15:37 | 24.29343 | 47.89028 | 29420 ft | 522 kts | 135° |
| 2026-04-23 15:37 | 24.26978 | 47.92017 | 29959 ft | 520 kts | 136° |
| 2026-04-23 15:37 | 24.24636 | 47.94970 | 30413 ft | 519 kts | 136° |
| 2026-04-23 15:37 | 24.22269 | 47.97953 | 30809 ft | 519 kts | 136° |
| 2026-04-23 15:38 | 24.19859 | 48.00984 | 31258 ft | 518 kts | 136° |
| 2026-04-23 15:38 | 24.17496 | 48.03959 | 31695 ft | 517 kts | 136° |
| 2026-04-23 15:38 | 24.15157 | 48.06903 | 32131 ft | 516 kts | 136° |
| 2026-04-23 15:38 | 24.12802 | 48.09866 | 32595 ft | 514 kts | 136° |
| 2026-04-23 15:39 | 24.10458 | 48.12809 | 33021 ft | 513 kts | 136° |
| 2026-04-23 15:39 | 24.08102 | 48.15770 | 33427 ft | 512 kts | 136° |
| 2026-04-23 15:39 | 24.05780 | 48.18686 | 33804 ft | 512 kts | 136° |
| 2026-04-23 15:39 | 24.03405 | 48.21661 | 34144 ft | 512 kts | 136° |
| 2026-04-23 15:40 | 24.01065 | 48.24596 | 34433 ft | 513 kts | 136° |
| 2026-04-23 15:40 | 23.98710 | 48.27544 | 34753 ft | 513 kts | 136° |
| 2026-04-23 15:40 | 23.96369 | 48.30477 | 35062 ft | 514 kts | 136° |
| 2026-04-23 15:40 | 23.94033 | 48.33401 | 35354 ft | 514 kts | 136° |
| 2026-04-23 15:41 | 23.91661 | 48.36368 | 35670 ft | 514 kts | 137° |
| 2026-04-23 15:41 | 23.89309 | 48.39307 | 35976 ft | 514 kts | 137° |
| 2026-04-23 15:41 | 23.86926 | 48.42282 | 36218 ft | 515 kts | 136° |
| 2026-04-23 15:41 | 23.84574 | 48.45216 | 36440 ft | 516 kts | 136° |
| 2026-04-23 15:42 | 23.82198 | 48.48181 | 36667 ft | 517 kts | 136° |
| 2026-04-23 15:42 | 23.79795 | 48.51178 | 36894 ft | 518 kts | 137° |
| 2026-04-23 15:42 | 23.77445 | 48.54108 | 37154 ft | 518 kts | 137° |
| 2026-04-23 15:42 | 23.75043 | 48.57103 | 37375 ft | 518 kts | 137° |
| 2026-04-23 15:43 | 23.72664 | 48.60062 | 37527 ft | 521 kts | 137° |
| 2026-04-23 15:43 | 23.70289 | 48.63015 | 37673 ft | 523 kts | 137° |
| 2026-04-23 15:43 | 23.67854 | 48.66039 | 37839 ft | 524 kts | 137° |
| 2026-04-23 15:43 | 23.65462 | 48.69009 | 37967 ft | 526 kts | 137° |
| 2026-04-23 15:44 | 23.63026 | 48.72033 | 38094 ft | 528 kts | 137° |
| 2026-04-23 15:44 | 23.60576 | 48.75075 | 38221 ft | 529 kts | 137° |
| 2026-04-23 15:44 | 23.58150 | 48.78084 | 38340 ft | 531 kts | 137° |
| 2026-04-23 15:44 | 23.55704 | 48.81116 | 38498 ft | 532 kts | 137° |
| 2026-04-23 15:45 | 23.53235 | 48.84175 | 38695 ft | 533 kts | 137° |
| 2026-04-23 15:45 | 23.50803 | 48.87190 | 38850 ft | 533 kts | 137° |
| 2026-04-23 15:45 | 23.48359 | 48.90219 | 38853 ft | 532 kts | 137° |
| 2026-04-23 15:46 | 23.43480 | 48.96250 | 38857 ft | 532 kts | 137° |
| 2026-04-23 15:46 | 23.38912 | 49.02702 | 38840 ft | 542 kts | 125° |
| 2026-04-23 15:47 | 23.35769 | 49.10212 | 38822 ft | 550 kts | 109° |
| 2026-04-23 15:47 | 23.34371 | 49.18379 | 38823 ft | 552 kts | 94° |
| 2026-04-23 15:48 | 23.33992 | 49.26722 | 38825 ft | 551 kts | 91° |
| 2026-04-23 15:48 | 23.33656 | 49.35039 | 38825 ft | 551 kts | 92° |
| 2026-04-23 15:49 | 23.33249 | 49.43321 | 38831 ft | 551 kts | 93° |
| 2026-04-23 15:49 | 23.32807 | 49.51613 | 38837 ft | 550 kts | 92° |
| 2026-04-23 15:50 | 23.32359 | 49.59920 | 38830 ft | 550 kts | 93° |
| 2026-04-23 15:50 | 23.31904 | 49.68200 | 38824 ft | 551 kts | 93° |
| 2026-04-23 15:51 | 23.31441 | 49.76562 | 38831 ft | 550 kts | 93° |
| 2026-04-23 15:51 | 23.30978 | 49.84886 | 38814 ft | 550 kts | 93° |
| 2026-04-23 15:52 | 23.30513 | 49.93185 | 38816 ft | 550 kts | 93° |
| 2026-04-23 15:52 | 23.30041 | 50.01454 | 38821 ft | 550 kts | 93° |
| 2026-04-23 15:53 | 23.29565 | 50.09765 | 38824 ft | 551 kts | 93° |
| 2026-04-23 15:53 | 23.29085 | 50.18074 | 38822 ft | 550 kts | 93° |
| 2026-04-23 15:54 | 23.28599 | 50.26350 | 38826 ft | 549 kts | 93° |
| 2026-04-23 15:54 | 23.28111 | 50.34634 | 38832 ft | 548 kts | 93° |
| 2026-04-23 15:55 | 23.27617 | 50.42942 | 38837 ft | 549 kts | 93° |
| 2026-04-23 15:55 | 23.27119 | 50.51223 | 38841 ft | 549 kts | 92° |
| 2026-04-23 15:56 | 23.26618 | 50.59517 | 38840 ft | 548 kts | 92° |
| 2026-04-23 15:56 | 23.26116 | 50.67784 | 38829 ft | 548 kts | 93° |
| 2026-04-23 15:57 | 23.25604 | 50.76057 | 38836 ft | 548 kts | 93° |
| 2026-04-23 15:57 | 23.25092 | 50.84312 | 38828 ft | 547 kts | 93° |
| 2026-04-23 15:58 | 23.24570 | 50.92594 | 38820 ft | 548 kts | 93° |
| 2026-04-23 15:58 | 23.24052 | 51.00832 | 38818 ft | 547 kts | 93° |
| 2026-04-23 15:59 | 23.23529 | 51.09061 | 38823 ft | 548 kts | 93° |
| 2026-04-23 15:59 | 23.22993 | 51.17361 | 38824 ft | 547 kts | 93° |
| 2026-04-23 16:00 | 23.22462 | 51.25565 | 38813 ft | 547 kts | 93° |
| 2026-04-23 16:00 | 23.21924 | 51.33821 | 38816 ft | 547 kts | 93° |
| 2026-04-23 16:01 | 23.21384 | 51.42032 | 38816 ft | 547 kts | 93° |
| 2026-04-23 16:01 | 23.20834 | 51.50312 | 38813 ft | 547 kts | 92° |
| 2026-04-23 16:02 | 23.20284 | 51.58513 | 38817 ft | 547 kts | 93° |
| 2026-04-23 16:02 | 23.19729 | 51.66739 | 38804 ft | 546 kts | 93° |
| 2026-04-23 16:03 | 23.19169 | 51.75045 | 38812 ft | 547 kts | 94° |
| 2026-04-23 16:03 | 23.18606 | 51.83239 | 38812 ft | 547 kts | 93° |
| 2026-04-23 16:04 | 23.18030 | 51.91564 | 38811 ft | 547 kts | 93° |
| 2026-04-23 16:04 | 23.17461 | 51.99766 | 38814 ft | 546 kts | 93° |
| 2026-04-23 16:05 | 23.16981 | 52.06657 | 38820 ft | 545 kts | 93° |
| 2026-04-23 16:05 | 23.16306 | 52.16228 | 38826 ft | 546 kts | 93° |
| 2026-04-23 16:06 | 23.15719 | 52.24503 | 38822 ft | 545 kts | 93° |
| 2026-04-23 16:06 | 23.15231 | 52.32723 | 38811 ft | 544 kts | 89° |
| 2026-04-23 16:07 | 23.15631 | 52.40928 | 38814 ft | 540 kts | 79° |
| 2026-04-23 16:07 | 23.17279 | 52.48825 | 38811 ft | 533 kts | 67° |
| 2026-04-23 16:08 | 23.20171 | 52.56187 | 38816 ft | 526 kts | 56° |
| 2026-04-23 16:08 | 23.23779 | 52.63116 | 38820 ft | 524 kts | 54° |
| 2026-04-23 16:09 | 23.27398 | 52.69988 | 38820 ft | 524 kts | 55° |
| 2026-04-23 16:09 | 23.30978 | 52.76905 | 38827 ft | 524 kts | 55° |
| 2026-04-23 16:10 | 23.34549 | 52.83859 | 38821 ft | 524 kts | 55° |
| 2026-04-23 16:10 | 23.38095 | 52.90778 | 38823 ft | 523 kts | 55° |
| 2026-04-23 16:11 | 23.41666 | 52.97716 | 38828 ft | 522 kts | 54° |
| 2026-04-23 16:11 | 23.45324 | 53.04547 | 38830 ft | 521 kts | 53° |
| 2026-04-23 16:12 | 23.48996 | 53.11384 | 38830 ft | 522 kts | 54° |
| 2026-04-23 16:12 | 23.52646 | 53.18219 | 38830 ft | 523 kts | 53° |
| 2026-04-23 16:13 | 23.56301 | 53.25084 | 38828 ft | 523 kts | 54° |
| 2026-04-23 16:13 | 23.61770 | 53.35381 | 38827 ft | 523 kts | 54° |
| 2026-04-23 16:14 | 23.65417 | 53.42252 | 38826 ft | 524 kts | 54° |
| 2026-04-23 16:14 | 23.69054 | 53.49126 | 38826 ft | 524 kts | 53° |
| 2026-04-23 16:15 | 23.72727 | 53.56047 | 38823 ft | 523 kts | 53° |
| 2026-04-23 16:15 | 23.76401 | 53.62927 | 38824 ft | 524 kts | 53° |
| 2026-04-23 16:16 | 23.80063 | 53.69803 | 38511 ft | 520 kts | 54° |
| 2026-04-23 16:16 | 23.81876 | 53.73219 | 37981 ft | 519 kts | 54° |
| 2026-04-23 16:16 | 23.83687 | 53.76622 | 37341 ft | 521 kts | 54° |
| 2026-04-23 16:17 | 23.85505 | 53.80040 | 36748 ft | 522 kts | 54° |
| 2026-04-23 16:17 | 23.87333 | 53.83483 | 36222 ft | 520 kts | 54° |
| 2026-04-23 16:17 | 23.89135 | 53.86881 | 35730 ft | 518 kts | 54° |
| 2026-04-23 16:17 | 23.90951 | 53.90315 | 35070 ft | 520 kts | 55° |
| 2026-04-23 16:18 | 23.92771 | 53.93747 | 34291 ft | 523 kts | 55° |
| 2026-04-23 16:18 | 23.94581 | 53.97170 | 33616 ft | 524 kts | 56° |
| 2026-04-23 16:18 | 23.96416 | 54.00643 | 32996 ft | 522 kts | 56° |
| 2026-04-23 16:18 | 23.98218 | 54.04067 | 32342 ft | 521 kts | 56° |
| 2026-04-23 16:19 | 24.00048 | 54.07542 | 31544 ft | 522 kts | 56° |
| 2026-04-23 16:19 | 24.01826 | 54.10959 | 30865 ft | 520 kts | 57° |
| 2026-04-23 16:19 | 24.03609 | 54.14408 | 30246 ft | 517 kts | 57° |
| 2026-04-23 16:19 | 24.05383 | 54.17850 | 29634 ft | 514 kts | 57° |
| 2026-04-23 16:20 | 24.07138 | 54.21257 | 29004 ft | 511 kts | 57° |
| 2026-04-23 16:20 | 24.08886 | 54.24645 | 28347 ft | 510 kts | 57° |
| 2026-04-23 16:20 | 24.10629 | 54.28025 | 27625 ft | 510 kts | 57° |
| 2026-04-23 16:20 | 24.12391 | 54.31445 | 26990 ft | 508 kts | 57° |
| 2026-04-23 16:21 | 24.14115 | 54.34794 | 26503 ft | 502 kts | 58° |
| 2026-04-23 16:21 | 24.15835 | 54.38142 | 25971 ft | 498 kts | 58° |
| 2026-04-23 16:21 | 24.17534 | 54.41447 | 25452 ft | 494 kts | 58° |
| 2026-04-23 16:21 | 24.19207 | 54.44711 | 24981 ft | 490 kts | 58° |
| 2026-04-23 16:22 | 24.20876 | 54.47968 | 24531 ft | 485 kts | 58° |
| 2026-04-23 16:22 | 24.22554 | 54.51156 | 24090 ft | 478 kts | 54° |
| 2026-04-23 16:22 | 24.24597 | 54.54034 | 23639 ft | 469 kts | 44° |
| 2026-04-23 16:22 | 24.27123 | 54.56268 | 23162 ft | 456 kts | 25° |
| 2026-04-23 16:23 | 24.30002 | 54.57452 | 22732 ft | 442 kts | 7° |
| 2026-04-23 16:23 | 24.33056 | 54.57658 | 22297 ft | 429 kts | 351° |
| 2026-04-23 16:23 | 24.35929 | 54.56943 | 21876 ft | 417 kts | 336° |
| 2026-04-23 16:23 | 24.38694 | 54.55947 | 21449 ft | 416 kts | 342° |
| 2026-04-23 16:24 | 24.41545 | 54.55291 | 21031 ft | 414 kts | 344° |
| 2026-04-23 16:24 | 24.44366 | 54.54645 | 20616 ft | 411 kts | 345° |
| 2026-04-23 16:24 | 24.47169 | 54.54046 | 20203 ft | 409 kts | 345° |
| 2026-04-23 16:24 | 24.49942 | 54.53489 | 19795 ft | 406 kts | 346° |
| 2026-04-23 16:25 | 24.52741 | 54.52966 | 19383 ft | 404 kts | 347° |
| 2026-04-23 16:25 | 24.55545 | 54.52507 | 18970 ft | 402 kts | 348° |
| 2026-04-23 16:25 | 24.58282 | 54.52073 | 18564 ft | 399 kts | 348° |
| 2026-04-23 16:25 | 24.61078 | 54.51626 | 18146 ft | 397 kts | 348° |
| 2026-04-23 16:26 | 24.63796 | 54.51188 | 17742 ft | 395 kts | 348° |
| 2026-04-23 16:26 | 24.66521 | 54.50745 | 17336 ft | 392 kts | 348° |
| 2026-04-23 16:26 | 24.69235 | 54.50346 | 16918 ft | 392 kts | 353° |
| 2026-04-23 16:26 | 24.71972 | 54.50607 | 16529 ft | 396 kts | 11° |
| 2026-04-23 16:27 | 24.74527 | 54.51707 | 16369 ft | 396 kts | 27° |
| 2026-04-23 16:27 | 24.76855 | 54.53327 | 16303 ft | 396 kts | 31° |
| 2026-04-23 16:27 | 24.79177 | 54.55033 | 16194 ft | 395 kts | 31° |
| 2026-04-23 16:27 | 24.81460 | 54.56708 | 16096 ft | 394 kts | 31° |
| 2026-04-23 16:28 | 24.83734 | 54.58360 | 16035 ft | 393 kts | 31° |
| 2026-04-23 16:28 | 24.86027 | 54.60012 | 15969 ft | 393 kts | 31° |
| 2026-04-23 16:28 | 24.88341 | 54.61675 | 15918 ft | 392 kts | 31° |
| 2026-04-23 16:28 | 24.90608 | 54.63303 | 15868 ft | 392 kts | 30° |
| 2026-04-23 16:29 | 24.92921 | 54.64965 | 15832 ft | 391 kts | 31° |
| 2026-04-23 16:29 | 24.95136 | 54.66662 | 15839 ft | 378 kts | 33° |
| 2026-04-23 16:29 | 24.97233 | 54.68306 | 15840 ft | 364 kts | 33° |
| 2026-04-23 16:29 | 24.99278 | 54.69913 | 15827 ft | 351 kts | 33° |
| 2026-04-23 16:30 | 25.01233 | 54.71448 | 15827 ft | 338 kts | 33° |
| 2026-04-23 16:30 | 25.03119 | 54.72929 | 15826 ft | 326 kts | 33° |
| 2026-04-23 16:30 | 25.04936 | 54.74355 | 15824 ft | 314 kts | 32° |
| 2026-04-23 16:30 | 25.06716 | 54.75748 | 15825 ft | 312 kts | 32° |
| 2026-04-23 16:31 | 25.08497 | 54.77139 | 15821 ft | 313 kts | 33° |
| 2026-04-23 16:31 | 25.10269 | 54.78526 | 15830 ft | 313 kts | 33° |
| 2026-04-23 16:31 | 25.12060 | 54.79931 | 15787 ft | 313 kts | 32° |
| 2026-04-23 16:31 | 25.13847 | 54.81332 | 15498 ft | 315 kts | 33° |
| 2026-04-23 16:32 | 25.15627 | 54.82762 | 15214 ft | 314 kts | 36° |
| 2026-04-23 16:32 | 25.17339 | 54.84314 | 14928 ft | 314 kts | 38° |
| 2026-04-23 16:32 | 25.18991 | 54.85856 | 14658 ft | 312 kts | 38° |
| 2026-04-23 16:32 | 25.20645 | 54.87406 | 14399 ft | 310 kts | 38° |
| 2026-04-23 16:33 | 25.22313 | 54.88968 | 14135 ft | 309 kts | 38° |
| 2026-04-23 16:33 | 25.23936 | 54.90485 | 13878 ft | 307 kts | 39° |
| 2026-04-23 16:33 | 25.25559 | 54.92010 | 13626 ft | 307 kts | 42° |
| 2026-04-23 16:33 | 25.26905 | 54.93981 | 13388 ft | 337 kts | 66° |
| 2026-04-23 16:34 | 25.27471 | 54.96521 | 13313 ft | 343 kts | 90° |
| 2026-04-23 16:34 | 25.27315 | 54.99142 | 12974 ft | 346 kts | 100° |
| 2026-04-23 16:34 | 25.26949 | 55.01827 | 12300 ft | 356 kts | 102° |
| 2026-04-23 16:34 | 25.26530 | 55.04563 | 11685 ft | 361 kts | 102° |
| 2026-04-23 16:35 | 25.26111 | 55.07264 | 11519 ft | 352 kts | 102° |
| 2026-04-23 16:35 | 25.25710 | 55.09875 | 11331 ft | 344 kts | 102° |
| 2026-04-23 16:35 | 25.25309 | 55.12481 | 11114 ft | 336 kts | 102° |
| 2026-04-23 16:35 | 25.24927 | 55.14969 | 10974 ft | 328 kts | 102° |
| 2026-04-23 16:36 | 25.24552 | 55.17434 | 10837 ft | 320 kts | 102° |
| 2026-04-23 16:36 | 25.24186 | 55.19857 | 10708 ft | 313 kts | 102° |
| 2026-04-23 16:36 | 25.23620 | 55.22136 | 10500 ft | 304 kts | 117° |
| 2026-04-23 16:36 | 25.22681 | 55.24242 | 10243 ft | 301 kts | 121° |
| 2026-04-23 16:37 | 25.21690 | 55.26265 | 9990 ft | 299 kts | 122° |
| 2026-04-23 16:37 | 25.20649 | 55.28263 | 9727 ft | 297 kts | 124° |
| 2026-04-23 16:37 | 25.19547 | 55.30198 | 9468 ft | 295 kts | 126° |
| 2026-04-23 16:37 | 25.18432 | 55.32104 | 9242 ft | 292 kts | 126° |
| 2026-04-23 16:38 | 25.17342 | 55.33956 | 9119 ft | 285 kts | 126° |
| 2026-04-23 16:38 | 25.16257 | 55.35795 | 8951 ft | 281 kts | 126° |
| 2026-04-23 16:38 | 25.15188 | 55.37600 | 8612 ft | 279 kts | 126° |
| 2026-04-23 16:38 | 25.14131 | 55.39376 | 8125 ft | 277 kts | 126° |
| 2026-04-23 16:39 | 25.13058 | 55.41161 | 7577 ft | 278 kts | 126° |
| 2026-04-23 16:39 | 25.11985 | 55.42916 | 7034 ft | 277 kts | 126° |
| 2026-04-23 16:39 | 25.10951 | 55.44701 | 6492 ft | 278 kts | 123° |
| 2026-04-23 16:39 | 25.09950 | 55.46532 | 5947 ft | 278 kts | 122° |
| 2026-04-23 16:40 | 25.08943 | 55.48370 | 5401 ft | 278 kts | 122° |
| 2026-04-23 16:40 | 25.07941 | 55.50168 | 4839 ft | 278 kts | 122° |
| 2026-04-23 16:40 | 25.06908 | 55.51978 | 4249 ft | 280 kts | 121° |
| 2026-04-23 16:40 | 25.05862 | 55.53770 | 3664 ft | 280 kts | 121° |
| 2026-04-23 16:41 | 25.04815 | 55.55585 | 3069 ft | 279 kts | 115° |
| 2026-04-23 16:41 | 25.04328 | 55.57625 | 2471 ft | 275 kts | 86° |
| 2026-04-23 16:41 | 25.04777 | 55.59604 | 2097 ft | 261 kts | 57° |
| 2026-04-23 16:41 | 25.05958 | 55.61019 | 2027 ft | 238 kts | 36° |
| 2026-04-23 16:42 | 25.07253 | 55.62042 | 2014 ft | 217 kts | 30° |
| 2026-04-23 16:42 | 25.08599 | 55.62516 | 1983 ft | 197 kts | 355° |
| 2026-04-23 16:42 | 25.09878 | 55.62131 | 2032 ft | 187 kts | 336° |
| 2026-04-23 16:42 | 25.11002 | 55.61504 | 2040 ft | 173 kts | 333° |
| 2026-04-23 16:43 | 25.12048 | 55.60850 | 2025 ft | 171 kts | 327° |
| 2026-04-23 16:43 | 25.12866 | 55.59885 | 2026 ft | 175 kts | 305° |
| 2026-04-23 16:43 | 25.13498 | 55.58729 | 2023 ft | 176 kts | 302° |
| 2026-04-23 16:43 | 25.14008 | 55.57511 | 2021 ft | 177 kts | 294° |
| 2026-04-23 16:44 | 25.14481 | 55.56235 | 2020 ft | 176 kts | 297° |
| 2026-04-23 16:44 | 25.15028 | 55.55026 | 2018 ft | 175 kts | 301° |
| 2026-04-23 16:44 | 25.15623 | 55.53889 | 2005 ft | 162 kts | 303° |
| 2026-04-23 16:44 | 25.16183 | 55.52867 | 1991 ft | 153 kts | 305° |
| 2026-04-23 16:45 | 25.16740 | 55.51865 | 2001 ft | 151 kts | 305° |
| 2026-04-23 16:45 | 25.17293 | 55.50874 | 1907 ft | 152 kts | 304° |
| 2026-04-23 16:45 | 25.17847 | 55.49874 | 1789 ft | 151 kts | 304° |
| 2026-04-23 16:45 | 25.18393 | 55.48886 | 1671 ft | 151 kts | 304° |
| 2026-04-23 16:46 | 25.18939 | 55.47896 | 1553 ft | 151 kts | 305° |
| 2026-04-23 16:46 | 25.19484 | 55.46912 | 1437 ft | 150 kts | 304° |
| 2026-04-23 16:46 | 25.20032 | 55.45921 | 1319 ft | 150 kts | 303° |
| 2026-04-23 16:46 | 25.20582 | 55.44925 | 1138 ft | 150 kts | 304° |
| 2026-04-23 16:47 | 25.21129 | 55.43936 | 946 ft | 149 kts | 303° |
| 2026-04-23 16:47 | 25.21668 | 55.42963 | 758 ft | 149 kts | 303° |
| 2026-04-23 16:47 | 25.22215 | 55.41975 | 566 ft | 149 kts | 303° |
| 2026-04-23 16:47 | 25.22757 | 55.40996 | 381 ft | 148 kts | 302° |
| 2026-04-23 16:48 | 25.23296 | 55.40022 | 192 ft | 146 kts | 302° |
| 2026-04-23 16:48 | 25.23828 | 55.39079 | 57 ft | 138 kts | 303° |
| 2026-04-23 16:48 | 25.24185 | 55.38407 | 51 ft | 58 kts | 303° |
| 2026-04-23 16:48 | 25.24389 | 55.38049 | 49 ft | 53 kts | 300° |
| 2026-04-23 16:49 | 25.24499 | 55.37850 | 47 ft | 36 kts | 302° |
| 2026-04-23 16:49 | 25.24596 | 55.37601 | 43 ft | 29 kts | 281° |
| 2026-04-23 16:49 | 25.24608 | 55.37495 | 41 ft | 1 kts | 276° |
| 2026-04-23 16:49 | 25.24610 | 55.37484 | 41 ft | 3 kts | 276° |
| 2026-04-23 16:50 | 25.24611 | 55.37469 | 40 ft | 4 kts | 277° |
| 2026-04-23 16:50 | 25.24616 | 55.37419 | 39 ft | 5 kts | 275° |
| 2026-04-23 16:50 | 25.24617 | 55.37408 | 39 ft | 2 kts | 275° |
| 2026-04-23 16:50 | 25.24619 | 55.37369 | 39 ft | 6 kts | 272° |
| 2026-04-23 16:51 | 25.24623 | 55.37308 | 39 ft | 8 kts | 277° |
| 2026-04-23 16:51 | 25.24641 | 55.37237 | 38 ft | 10 kts | 293° |
| 2026-04-23 16:51 | 25.24676 | 55.37162 | 38 ft | 11 kts | 299° |